Terminal Aerodrome Forecast
Issued by NWS Detroit/Pontiac, MI

Home | Current Version | Previous Version | Text Only | Print | Product List | Glossary On
Versions: 1 2 3 4 5 6 7 8 9 10 11 12 13 14 15 16 17 18 19 20
000
FTUS43 KDTX 072320
TAFFNT
TAF
KFNT 072320Z 0800/0824 19011KT P6SM SCT045 OVC100
     FM080300 20007KT P6SM SCT028 OVC040
     FM080700 21006KT 6SM HZ OVC028
     FM081300 24007KT P6SM SCT028 OVC080
     FM081600 28007KT P6SM BKN040=

USA.gov is the U.S. government's official web portal to all federal, state and local government web resources and services.